Time;durP1;ratioP1;P1;durP2;ratioP2;P2;SDS_P1;SDS_P2;PMS_P1;PMS_P2;Temp;Humidity;BMP_temperature;BMP_pressure;BME280_temperature;BME280_humidity;BME280_pressure;Samples;Min_cycle;Max_cycle;Signal;HPM_P1;HPM_P2
2023/06/04 00:00:43;;;;;;;1.80;0.88;;;12.20;90.40;;;;;;5031917;28;20048;-74
2023/06/04 00:03:08;;;;;;;2.28;0.73;;;12.20;90.60;;;;;;5010560;28;20033;-74
2023/06/04 00:05:34;;;;;;;1.92;0.93;;;12.10;90.80;;;;;;5045896;28;20528;-74
2023/06/04 00:08:00;;;;;;;2.10;1.02;;;12.10;91.10;;;;;;5042184;28;20047;-73
2023/06/04 00:10:25;;;;;;;3.95;0.85;;;12.10;91.20;;;;;;5027400;28;20048;-74
2023/06/04 00:12:51;;;;;;;11.63;1.00;;;12.10;91.30;;;;;;5027899;28;20414;-73
2023/06/04 00:15:16;;;;;;;1.52;0.80;;;12.00;91.20;;;;;;5027937;28;20056;-73
2023/06/04 00:17:43;;;;;;;2.03;0.80;;;12.00;91.30;;;;;;5012634;28;20044;-74
2023/06/04 00:20:10;;;;;;;2.08;0.88;;;12.00;91.50;;;;;;5028203;28;20120;-73
2023/06/04 00:22:35;;;;;;;2.47;0.85;;;12.00;91.60;;;;;;5046175;28;20055;-74
2023/06/04 00:25:01;;;;;;;2.47;0.88;;;11.90;91.60;;;;;;5025841;28;20380;-74
2023/06/04 00:27:27;;;;;;;2.17;0.90;;;11.90;91.80;;;;;;5044147;28;20400;-73
2023/06/04 00:29:52;;;;;;;3.67;0.98;;;11.80;91.90;;;;;;5025916;28;20040;-74
2023/06/04 00:32:18;;;;;;;1.75;0.75;;;11.80;92.20;;;;;;5045974;28;20455;-74
2023/06/04 00:34:59;;;;;;;4.15;1.10;;;11.80;92.40;;;;;;5025651;28;20045;-73
2023/06/04 00:37:25;;;;;;;3.33;1.27;;;11.80;92.80;;;;;;5046105;28;20037;-74
2023/06/04 00:39:51;;;;;;;2.08;0.80;;;11.70;92.70;;;;;;5026488;28;20488;-73
2023/06/04 00:42:17;;;;;;;2.22;0.82;;;11.80;92.70;;;;;;5028616;28;20072;-74
2023/06/04 00:44:45;;;;;;;2.97;1.23;;;11.70;92.80;;;;;;5025221;28;20056;-73
2023/06/04 00:47:15;;;;;;;3.10;0.95;;;11.70;93.00;;;;;;5013049;28;20518;-74
2023/06/04 00:49:41;;;;;;;3.30;0.93;;;11.70;93.10;;;;;;5012231;28;20097;-74
2023/06/04 00:52:13;;;;;;;2.35;1.15;;;11.70;93.10;;;;;;5027777;28;20071;-74
2023/06/04 00:54:40;;;;;;;2.60;1.02;;;11.70;93.30;;;;;;5024823;28;20094;-74
2023/06/04 00:57:06;;;;;;;3.65;1.02;;;11.70;93.30;;;;;;5010124;28;20580;-73
2023/06/04 00:59:33;;;;;;;3.05;1.42;;;11.70;93.40;;;;;;5026876;28;20033;-74
2023/06/04 01:02:09;;;;;;;2.38;0.90;;;11.70;93.60;;;;;;5027590;28;20142;-74
2023/06/04 01:05:00;;;;;;;2.40;0.90;;;11.60;93.90;;;;;;5019950;28;20044;-73
2023/06/04 01:07:30;;;;;;;3.10;1.63;;;11.60;94.10;;;;;;5043845;28;20043;-74
2023/06/04 01:09:56;;;;;;;2.80;1.08;;;11.50;93.80;;;;;;5010579;28;20120;-74
2023/06/04 01:12:22;;;;;;;4.22;0.88;;;11.50;93.90;;;;;;5029666;28;20495;-74
2023/06/04 01:14:48;;;;;;;3.10;1.20;;;11.50;93.90;;;;;;5044622;28;20037;-74
2023/06/04 01:17:28;;;;;;;2.83;1.27;;;11.40;94.00;;;;;;5050328;28;20054;-74
2023/06/04 01:20:12;;;;;;;3.13;1.00;;;11.40;94.10;;;;;;5008718;28;20086;-74
2023/06/04 01:23:01;;;;;;;2.00;1.00;;;11.40;94.30;;;;;;5030760;28;20095;-74
2023/06/04 01:25:49;;;;;;;3.33;0.90;;;11.40;94.20;;;;;;5030813;28;20763;-74
2023/06/04 01:28:15;;;;;;;2.60;1.10;;;11.40;94.90;;;;;;5031221;28;20130;-73
2023/06/04 01:30:45;;;;;;;2.55;0.88;;;11.30;94.40;;;;;;5029735;28;20040;-74
2023/06/04 01:33:15;;;;;;;2.70;1.13;;;11.20;94.70;;;;;;5026442;28;20040;-74
2023/06/04 01:35:41;;;;;;;3.70;1.50;;;11.20;94.80;;;;;;5024969;28;20040;-74
2023/06/04 01:38:07;;;;;;;3.08;1.10;;;11.20;94.90;;;;;;5008986;28;20044;-74
2023/06/04 01:40:33;;;;;;;2.88;1.02;;;11.20;95.00;;;;;;5028791;28;20041;-74
2023/06/04 01:42:59;;;;;;;3.72;1.40;;;11.20;95.10;;;;;;5045887;28;20051;-73
2023/06/04 01:45:26;;;;;;;4.57;1.55;;;11.20;95.10;;;;;;5042133;28;20033;-74
2023/06/04 01:47:52;;;;;;;2.38;1.00;;;11.20;95.20;;;;;;5042456;28;20086;-74
2023/06/04 01:50:18;;;;;;;2.78;1.33;;;11.10;95.30;;;;;;5024898;28;20033;-74
2023/06/04 01:52:44;;;;;;;3.63;0.93;;;11.20;95.40;;;;;;5026610;28;20563;-74
2023/06/04 01:55:12;;;;;;;4.63;1.35;;;11.20;95.50;;;;;;5038291;28;20041;-74
2023/06/04 01:57:39;;;;;;;3.33;1.67;;;11.20;95.60;;;;;;5027667;28;20041;-74
2023/06/04 02:00:10;;;;;;;2.45;1.30;;;11.10;95.60;;;;;;5027099;28;20037;-74
2023/06/04 02:02:36;;;;;;;5.05;1.40;;;11.10;95.70;;;;;;5012437;28;20170;-74
2023/06/04 02:05:08;;;;;;;3.85;1.23;;;11.10;95.70;;;;;;5021275;28;20433;-74
2023/06/04 02:07:38;;;;;;;5.32;1.42;;;11.00;95.90;;;;;;5038003;28;20040;-74
2023/06/04 02:10:11;;;;;;;4.20;1.13;;;11.00;95.90;;;;;;5018800;28;20056;-74
2023/06/04 02:12:39;;;;;;;4.25;1.27;;;10.90;96.10;;;;;;5007435;28;20045;-74
2023/06/04 02:15:06;;;;;;;2.35;0.85;;;10.90;96.10;;;;;;5004471;28;20067;-74
2023/06/04 02:17:39;;;;;;;2.33;1.02;;;10.90;96.20;;;;;;5008691;28;20083;-74
2023/06/04 02:20:06;;;;;;;3.13;1.20;;;10.90;96.20;;;;;;5022176;28;20142;-74
2023/06/04 02:22:31;;;;;;;5.13;1.40;;;10.80;96.20;;;;;;5010820;28;20036;-74
2023/06/04 02:24:57;;;;;;;2.40;1.05;;;10.80;96.30;;;;;;5045757;28;20049;-74
2023/06/04 02:27:22;;;;;;;3.42;1.20;;;10.80;96.40;;;;;;5047422;28;20120;-74
2023/06/04 02:29:48;;;;;;;4.10;1.17;;;10.80;96.40;;;;;;5024721;28;20125;-74
2023/06/04 02:32:13;;;;;;;3.30;1.15;;;10.70;96.40;;;;;;5044797;28;20045;-74
2023/06/04 02:34:39;;;;;;;4.28;1.45;;;10.70;96.40;;;;;;5027443;28;20509;-74
2023/06/04 02:37:05;;;;;;;2.80;1.00;;;10.70;96.50;;;;;;5028296;28;20091;-74
2023/06/04 02:39:31;;;;;;;4.75;1.67;;;10.80;96.50;;;;;;5022851;28;20589;-74
2023/06/04 02:41:56;;;;;;;3.72;1.80;;;10.60;96.60;;;;;;5027693;28;20116;-74
2023/06/04 02:44:22;;;;;;;2.55;1.20;;;10.60;96.70;;;;;;5045736;28;20051;-74
2023/06/04 02:46:47;;;;;;;3.28;1.33;;;10.60;96.80;;;;;;5027927;28;20040;-74
2023/06/04 02:49:13;;;;;;;4.07;1.17;;;10.60;96.70;;;;;;5009994;28;20049;-74
2023/06/04 02:51:42;;;;;;;4.28;1.35;;;10.50;96.70;;;;;;5039351;28;20040;-74
2023/06/04 02:54:09;;;;;;;2.67;1.20;;;10.50;96.90;;;;;;5026463;28;20506;-74
2023/06/04 02:56:36;;;;;;;2.70;1.27;;;10.40;97.00;;;;;;5011709;28;20033;-74
2023/06/04 02:59:03;;;;;;;4.35;1.45;;;10.40;97.20;;;;;;5028118;28;20065;-74
2023/06/04 03:01:29;;;;;;;4.38;1.13;;;10.40;97.30;;;;;;5024364;28;20036;-74
2023/06/04 03:03:56;;;;;;;2.72;1.45;;;10.40;97.30;;;;;;5024500;28;20099;-74
2023/06/04 03:06:23;;;;;;;4.45;1.58;;;10.30;97.30;;;;;;5043239;28;20037;-74
2023/06/04 03:08:52;;;;;;;2.67;1.10;;;10.30;97.40;;;;;;5027691;28;20562;-74
2023/06/04 03:11:21;;;;;;;3.95;1.92;;;10.20;97.50;;;;;;5023324;28;20585;-74
2023/06/04 03:13:48;;;;;;;3.35;1.63;;;10.20;97.60;;;;;;5046040;28;20037;-74
2023/06/04 03:16:13;;;;;;;3.60;1.45;;;10.20;97.80;;;;;;5026366;28;20513;-74
2023/06/04 03:18:42;;;;;;;3.90;1.58;;;10.10;98.00;;;;;;5054273;28;20029;-74
2023/06/04 03:21:08;;;;;;;4.47;1.80;;;10.20;98.20;;;;;;5023685;28;20033;-74
2023/06/04 03:23:35;;;;;;;2.85;1.20;;;10.10;98.10;;;;;;5047952;28;20098;-74
2023/06/04 03:26:03;;;;;;;2.42;1.20;;;10.20;98.10;;;;;;5027071;28;20464;-74
2023/06/04 03:28:28;;;;;;;4.32;1.83;;;10.20;98.10;;;;;;5044931;28;20037;-74
2023/06/04 03:30:54;;;;;;;6.07;1.73;;;10.20;98.10;;;;;;5042478;28;20033;-74
2023/06/04 03:33:20;;;;;;;2.75;1.55;;;10.20;98.10;;;;;;5027684;28;20041;-74
2023/06/04 03:35:47;;;;;;;3.63;1.30;;;10.20;98.00;;;;;;5029127;28;20098;-74
2023/06/04 03:38:14;;;;;;;4.40;1.80;;;10.20;98.00;;;;;;5028688;28;20411;-74
2023/06/04 03:40:40;;;;;;;3.33;1.50;;;10.20;98.10;;;;;;5029721;28;20029;-74
2023/06/04 03:43:06;;;;;;;5.65;1.98;;;10.20;98.20;;;;;;5048023;28;20037;-74
2023/06/04 03:45:31;;;;;;;3.33;1.40;;;10.20;98.30;;;;;;5031073;28;20044;-74
2023/06/04 03:47:57;;;;;;;3.80;1.55;;;10.20;98.40;;;;;;5030178;28;20513;-74
2023/06/04 03:50:23;;;;;;;5.38;1.60;;;10.20;98.40;;;;;;5026394;28;20045;-74
2023/06/04 03:52:49;;;;;;;3.33;1.45;;;10.20;98.40;;;;;;5028901;28;20069;-74
2023/06/04 03:55:15;;;;;;;3.28;1.60;;;10.20;98.40;;;;;;5023990;28;20033;-74
2023/06/04 03:57:41;;;;;;;4.43;1.48;;;10.30;98.50;;;;;;5028110;28;20025;-74
2023/06/04 04:00:11;;;;;;;8.13;1.67;;;10.20;98.50;;;;;;5041226;28;20166;-74
2023/06/04 04:02:37;;;;;;;4.63;1.88;;;10.20;98.60;;;;;;5044146;28;20526;-74
2023/06/04 04:05:03;;;;;;;4.03;1.80;;;10.30;98.80;;;;;;5023469;28;20049;-74
2023/06/04 04:07:29;;;;;;;5.07;1.75;;;10.30;99.00;;;;;;5028792;28;20045;-74
2023/06/04 04:09:54;;;;;;;5.40;1.90;;;10.30;99.00;;;;;;5009109;28;21494;-74
2023/06/04 04:12:20;;;;;;;5.22;2.15;;;10.40;99.30;;;;;;5026325;28;20498;-74
2023/06/04 04:14:47;;;;;;;6.30;2.10;;;10.40;99.40;;;;;;5025938;28;20613;-74
2023/06/04 04:17:13;;;;;;;3.83;2.00;;;10.50;99.60;;;;;;5025983;28;20406;-74
2023/06/04 04:19:39;;;;;;;6.40;2.10;;;10.50;99.60;;;;;;5042202;28;20762;-74
2023/06/04 04:22:05;;;;;;;5.65;1.90;;;10.60;99.70;;;;;;5026943;28;20044;-74
2023/06/04 04:24:31;;;;;;;6.78;1.88;;;10.60;99.80;;;;;;5041936;28;20057;-74
2023/06/04 04:26:58;;;;;;;5.28;1.90;;;10.70;99.90;;;;;;5022083;28;20040;-74
2023/06/04 04:29:24;;;;;;;5.50;2.33;;;10.70;99.90;;;;;;5029542;28;20379;-74
2023/06/04 04:31:57;;;;;;;7.43;2.40;;;10.70;99.90;;;;;;5014885;28;20037;-74
2023/06/04 04:34:25;;;;;;;4.90;2.60;;;10.80;99.90;;;;;;5013386;28;20044;-74
2023/06/04 04:36:54;;;;;;;5.55;2.40;;;10.80;99.90;;;;;;5043948;28;20411;-74
2023/06/04 04:39:24;;;;;;;6.18;2.13;;;10.80;99.90;;;;;;5046899;28;20032;-74
2023/06/04 04:41:50;;;;;;;6.93;2.03;;;10.90;99.90;;;;;;5025428;28;20044;-74
2023/06/04 04:44:15;;;;;;;4.38;2.13;;;10.90;99.90;;;;;;5045669;28;20082;-74
2023/06/04 04:46:41;;;;;;;3.38;2.10;;;10.90;99.90;;;;;;5010342;28;20040;-74
2023/06/04 04:49:07;;;;;;;6.88;2.17;;;11.00;99.90;;;;;;5029609;28;20219;-73
2023/06/04 04:51:32;;;;;;;4.63;2.00;;;11.00;99.90;;;;;;5027647;28;20043;-74
2023/06/04 04:54:00;;;;;;;5.85;2.00;;;11.10;99.90;;;;;;5042037;28;20041;-74
2023/06/04 04:56:26;;;;;;;5.25;2.50;;;11.10;99.90;;;;;;5023276;28;20040;-74
2023/06/04 04:58:52;;;;;;;7.13;2.55;;;11.10;99.90;;;;;;5041952;28;20033;-74
2023/06/04 05:01:18;;;;;;;6.88;2.25;;;11.10;99.90;;;;;;5044546;28;20298;-74
2023/06/04 05:03:44;;;;;;;5.10;2.13;;;11.20;99.90;;;;;;5024750;28;20498;-73
2023/06/04 05:06:10;;;;;;;6.22;1.90;;;11.20;99.90;;;;;;5027001;28;20463;-74
2023/06/04 05:08:35;;;;;;;3.80;1.90;;;11.30;99.90;;;;;;5025932;28;20253;-74
2023/06/04 05:11:01;;;;;;;5.82;2.30;;;11.30;99.90;;;;;;5026959;28;20040;-74
2023/06/04 05:13:26;;;;;;;4.38;1.95;;;11.20;99.90;;;;;;5008389;28;20047;-74
2023/06/04 05:15:52;;;;;;;6.82;2.55;;;11.30;99.90;;;;;;5026844;28;20494;-74
2023/06/04 05:18:21;;;;;;;4.75;2.17;;;11.30;99.90;;;;;;5042315;28;20182;-74
2023/06/04 05:20:47;;;;;;;7.30;2.65;;;11.30;99.90;;;;;;5029180;28;20844;-74
2023/06/04 05:23:13;;;;;;;6.70;2.10;;;11.30;99.90;;;;;;5038698;28;20045;-74
2023/06/04 05:25:40;;;;;;;7.45;1.95;;;11.40;99.90;;;;;;5042953;28;20055;-74
2023/06/04 05:28:06;;;;;;;8.73;2.22;;;11.40;99.90;;;;;;5023632;28;20057;-74
2023/06/04 05:30:33;;;;;;;7.45;2.72;;;11.50;99.90;;;;;;5026714;28;20124;-74
2023/06/04 05:32:59;;;;;;;8.02;2.70;;;11.50;99.90;;;;;;5015467;28;20650;-74
2023/06/04 05:35:25;;;;;;;6.72;2.50;;;11.60;99.90;;;;;;5043700;28;20410;-74
2023/06/04 05:37:53;;;;;;;7.20;2.20;;;11.60;99.90;;;;;;5028278;28;20033;-74
2023/06/04 05:40:21;;;;;;;7.03;2.47;;;11.60;99.90;;;;;;5008775;28;20471;-74
2023/06/04 05:42:48;;;;;;;5.75;2.40;;;11.60;99.90;;;;;;5008883;28;20079;-74
2023/06/04 05:45:13;;;;;;;7.45;2.47;;;11.70;99.90;;;;;;5030148;28;20039;-74
2023/06/04 05:47:40;;;;;;;6.25;3.03;;;11.70;99.90;;;;;;5009127;28;20032;-74
2023/06/04 05:50:06;;;;;;;6.68;2.90;;;11.80;99.90;;;;;;5020794;28;20497;-74
2023/06/04 05:52:34;;;;;;;6.50;2.55;;;11.80;99.90;;;;;;5013258;28;20518;-74
2023/06/04 05:54:59;;;;;;;7.78;2.22;;;11.90;99.90;;;;;;5008016;28;20048;-74
2023/06/04 05:57:25;;;;;;;6.30;1.95;;;11.90;99.90;;;;;;5008603;28;20055;-74
2023/06/04 05:59:51;;;;;;;6.80;2.40;;;12.00;99.90;;;;;;5028104;28;20207;-74
2023/06/04 06:02:17;;;;;;;4.70;1.98;;;12.00;99.90;;;;;;5021649;28;20078;-74
2023/06/04 06:04:42;;;;;;;8.70;2.17;;;12.10;99.90;;;;;;5029033;28;20044;-74
2023/06/04 06:07:08;;;;;;;6.00;2.50;;;12.10;99.90;;;;;;5024858;28;20033;-74
2023/06/04 06:09:35;;;;;;;4.88;2.30;;;12.10;99.90;;;;;;5021876;28;20029;-74
2023/06/04 06:12:01;;;;;;;9.93;2.40;;;12.20;99.90;;;;;;5036156;28;20045;-74
2023/06/04 06:14:26;;;;;;;5.93;1.80;;;12.20;99.90;;;;;;5037331;28;20056;-74
2023/06/04 06:16:53;;;;;;;5.55;3.40;;;12.30;99.90;;;;;;5042754;28;20132;-74
2023/06/04 06:19:18;;;;;;;5.95;2.05;;;12.50;99.90;;;;;;5018929;28;20053;-74
2023/06/04 06:21:44;;;;;;;4.70;2.20;;;12.60;99.90;;;;;;5030321;28;20048;-74
2023/06/04 06:24:10;;;;;;;6.38;2.45;;;12.60;99.90;;;;;;5032399;28;20075;-74
2023/06/04 06:26:36;;;;;;;6.45;2.58;;;12.60;99.90;;;;;;5034266;28;20130;-75
2023/06/04 06:29:02;;;;;;;3.92;2.03;;;12.70;99.90;;;;;;5001937;28;20221;-74
2023/06/04 06:31:30;;;;;;;6.72;2.60;;;13.00;99.90;;;;;;5003996;28;20043;-74
2023/06/04 06:33:56;;;;;;;6.13;2.90;;;13.80;99.90;;;;;;5036953;28;20037;-75
2023/06/04 06:36:21;;;;;;;6.55;2.28;;;14.70;99.90;;;;;;5015876;28;20037;-75
2023/06/04 06:38:47;;;;;;;4.60;2.38;;;15.50;99.90;;;;;;5019786;28;20067;-75
2023/06/04 06:41:12;;;;;;;4.43;2.17;;;16.00;99.90;;;;;;5036765;28;20060;-75
2023/06/04 06:43:38;;;;;;;3.95;1.75;;;16.70;99.10;;;;;;5035112;28;20462;-75
2023/06/04 06:46:04;;;;;;;5.97;1.42;;;17.30;98.30;;;;;;5002191;28;20040;-75
2023/06/04 06:48:29;;;;;;;4.55;1.50;;;17.80;97.40;;;;;;5002196;28;20548;-75
2023/06/04 06:50:55;;;;;;;4.85;2.10;;;18.10;96.30;;;;;;5002098;28;21076;-75
2023/06/04 06:53:21;;;;;;;6.65;1.35;;;17.70;96.60;;;;;;5017602;28;20044;-75
2023/06/04 06:55:46;;;;;;;3.42;1.05;;;17.20;97.40;;;;;;5017024;28;20041;-74
2023/06/04 06:58:12;;;;;;;4.65;1.05;;;16.60;98.30;;;;;;5021287;28;20040;-75
2023/06/04 07:00:38;;;;;;;11.15;1.60;;;16.20;99.00;;;;;;5035037;28;20449;-75
2023/06/04 07:03:03;;;;;;;4.70;1.58;;;15.90;99.50;;;;;;5016856;28;20130;-75
2023/06/04 07:05:29;;;;;;;3.25;1.48;;;15.70;99.90;;;;;;5020563;28;20041;-75
2023/06/04 07:07:57;;;;;;;3.33;1.30;;;15.50;99.90;;;;;;5018091;28;20284;-74
2023/06/04 07:10:22;;;;;;;5.43;1.00;;;15.30;99.90;;;;;;5022694;28;20095;-74
2023/06/04 07:12:48;;;;;;;4.43;1.35;;;15.20;99.90;;;;;;5023592;28;20468;-75
2023/06/04 07:15:14;;;;;;;4.63;1.00;;;15.10;99.90;;;;;;5023175;28;20400;-74
2023/06/04 07:17:40;;;;;;;2.15;1.08;;;14.90;99.90;;;;;;5021257;28;20033;-74
2023/06/04 07:20:07;;;;;;;2.97;1.10;;;14.80;99.90;;;;;;5019611;28;20395;-75
2023/06/04 07:22:34;;;;;;;4.05;1.02;;;14.70;99.90;;;;;;5033492;28;20041;-75
2023/06/04 07:25:00;;;;;;;4.43;1.20;;;14.60;99.90;;;;;;5037793;28;20052;-75
2023/06/04 07:27:26;;;;;;;6.80;1.63;;;14.60;99.90;;;;;;5024988;28;20819;-75
2023/06/04 07:29:52;;;;;;;5.15;1.73;;;14.60;99.90;;;;;;5008573;28;20040;-75
2023/06/04 07:32:17;;;;;;;5.30;1.30;;;14.60;99.90;;;;;;5023313;28;20654;-75
2023/06/04 07:34:43;;;;;;;6.63;1.65;;;14.50;99.90;;;;;;5024344;28;20617;-75
2023/06/04 07:37:09;;;;;;;3.70;1.58;;;14.50;99.90;;;;;;5040938;28;20043;-75
2023/06/04 07:39:36;;;;;;;8.32;2.13;;;14.50;99.90;;;;;;5021330;28;20037;-75
2023/06/04 07:42:01;;;;;;;4.70;1.63;;;14.50;99.90;;;;;;5035113;28;20525;-75
2023/06/04 07:44:27;;;;;;;6.50;2.22;;;14.50;99.90;;;;;;5038784;28;20047;-75
2023/06/04 07:46:52;;;;;;;4.38;1.27;;;14.50;99.90;;;;;;5040693;28;20067;-75
2023/06/04 07:49:18;;;;;;;3.58;1.33;;;14.50;99.90;;;;;;5044114;28;20045;-75
2023/06/04 07:51:44;;;;;;;5.22;1.45;;;14.50;99.90;;;;;;5023347;28;20032;-75
2023/06/04 07:54:10;;;;;;;4.70;0.82;;;14.50;99.90;;;;;;5032306;28;20162;-74
2023/06/04 07:56:35;;;;;;;2.30;1.15;;;14.60;99.90;;;;;;5050485;28;22224;-75
2023/06/04 07:59:01;;;;;;;2.42;0.90;;;14.60;99.90;;;;;;5040128;28;20049;-75
2023/06/04 08:01:27;;;;;;;2.47;0.90;;;14.60;99.90;;;;;;5039755;28;20029;-74
2023/06/04 08:03:53;;;;;;;3.72;1.35;;;14.70;99.90;;;;;;5019083;28;20445;-75
2023/06/04 08:06:18;;;;;;;3.53;0.95;;;14.70;99.80;;;;;;5041107;28;20547;-75
2023/06/04 08:08:45;;;;;;;4.97;1.05;;;14.70;99.70;;;;;;5019885;28;20236;-74
2023/06/04 08:11:15;;;;;;;3.42;0.80;;;14.80;99.40;;;;;;5023785;28;20128;-75
2023/06/04 08:13:41;;;;;;;3.35;0.98;;;14.80;99.20;;;;;;5009158;28;20076;-75
2023/06/04 08:16:09;;;;;;;3.75;0.90;;;14.90;98.80;;;;;;5021180;28;20135;-75
2023/06/04 08:18:38;;;;;;;3.70;1.10;;;14.80;98.50;;;;;;5017276;28;20044;-74
2023/06/04 08:21:03;;;;;;;1.33;0.60;;;14.90;98.30;;;;;;5038602;28;20128;-75
2023/06/04 08:23:29;;;;;;;2.10;0.70;;;14.90;98.30;;;;;;5004929;28;20756;-75
2023/06/04 08:25:55;;;;;;;3.13;0.77;;;14.90;98.10;;;;;;5023881;28;20041;-75
2023/06/04 08:28:20;;;;;;;1.60;0.63;;;15.00;97.80;;;;;;5020537;28;20457;-75
2023/06/04 08:30:46;;;;;;;4.05;0.60;;;15.00;97.50;;;;;;5005901;28;20064;-74
2023/06/04 08:33:12;;;;;;;1.15;0.60;;;15.10;97.40;;;;;;5017622;28;20087;-75
2023/06/04 08:35:37;;;;;;;1.13;0.57;;;15.10;97.10;;;;;;5024174;28;20037;-76
2023/06/04 08:38:03;;;;;;;3.20;0.80;;;15.20;97.10;;;;;;5022524;28;20036;-75
2023/06/04 08:40:28;;;;;;;1.92;0.65;;;15.20;97.10;;;;;;5016643;28;20120;-75
2023/06/04 08:42:58;;;;;;;2.10;0.85;;;15.20;97.10;;;;;;5006567;28;20650;-75
2023/06/04 08:45:28;;;;;;;2.33;1.00;;;15.30;96.90;;;;;;5016852;28;20033;-75
2023/06/04 08:47:54;;;;;;;4.45;0.90;;;15.30;96.80;;;;;;5007291;28;20032;-75
2023/06/04 08:50:22;;;;;;;5.13;1.05;;;15.40;96.70;;;;;;5037616;28;20175;-75
2023/06/04 08:52:55;;;;;;;2.55;0.50;;;15.40;96.80;;;;;;5039679;28;20183;-74
2023/06/04 08:55:21;;;;;;;7.65;0.95;;;15.40;97.00;;;;;;5041404;28;20116;-75
2023/06/04 08:57:50;;;;;;;5.72;1.20;;;15.50;97.00;;;;;;5007891;28;20119;-75
2023/06/04 09:00:16;;;;;;;2.90;0.77;;;15.60;96.90;;;;;;5036007;28;20041;-75
2023/06/04 09:02:42;;;;;;;4.15;0.80;;;15.60;96.80;;;;;;5034902;28;20477;-78
2023/06/04 09:05:10;;;;;;;2.28;0.70;;;15.60;96.60;;;;;;5033850;28;20091;-75
2023/06/04 09:07:38;;;;;;;3.38;1.17;;;15.60;96.40;;;;;;5015911;28;20167;-75
2023/06/04 09:10:06;;;;;;;3.13;0.63;;;15.60;96.30;;;;;;5017378;28;20064;-75
2023/06/04 09:12:35;;;;;;;1.73;0.63;;;15.70;96.00;;;;;;5015291;28;20405;-76
2023/06/04 09:15:01;;;;;;;2.47;0.70;;;15.80;96.00;;;;;;5000752;28;20052;-75
2023/06/04 09:17:28;;;;;;;3.95;1.15;;;15.80;95.90;;;;;;5032530;28;20033;-76
2023/06/04 09:19:53;;;;;;;3.92;0.68;;;15.90;95.70;;;;;;5019803;28;20540;-75
2023/06/04 09:22:19;;;;;;;3.17;0.80;;;15.90;95.70;;;;;;5016756;28;20033;-76
2023/06/04 09:24:47;;;;;;;2.22;0.80;;;15.90;95.60;;;;;;5002182;28;20110;-76
2023/06/04 09:27:14;;;;;;;3.67;0.63;;;16.00;95.30;;;;;;5023826;28;20523;-76
2023/06/04 09:29:48;;;;;;;2.15;0.70;;;16.00;95.30;;;;;;5037176;28;20048;-76
2023/06/04 09:32:14;;;;;;;2.35;0.75;;;16.00;94.90;;;;;;5017850;28;20083;-76
2023/06/04 09:34:45;;;;;;;1.83;0.82;;;16.10;94.90;;;;;;5017246;28;20049;-76
2023/06/04 09:37:18;;;;;;;3.50;0.65;;;16.10;94.50;;;;;;5018093;28;20037;-75
2023/06/04 09:39:54;;;;;;;1.60;0.60;;;16.20;93.60;;;;;;5032384;28;20040;-76
2023/06/04 09:42:20;;;;;;;1.75;0.60;;;16.20;93.30;;;;;;5032490;28;20044;-74
2023/06/04 09:44:46;;;;;;;4.35;0.50;;;16.20;93.20;;;;;;5032542;28;20594;-77
2023/06/04 09:47:12;;;;;;;1.45;0.50;;;16.20;92.60;;;;;;5016106;28;20036;-76
2023/06/04 09:49:50;;;;;;;1.95;0.60;;;16.20;92.10;;;;;;5016389;28;20470;-76
2023/06/04 09:52:17;;;;;;;5.00;1.02;;;16.20;89.40;;;;;;5004942;28;20527;-76
2023/06/04 09:54:43;;;;;;;2.30;0.50;;;16.30;90.60;;;;;;4996236;28;20029;-77
2023/06/04 09:57:16;;;;;;;2.55;0.63;;;16.30;90.40;;;;;;5020043;28;20761;-77
2023/06/04 09:59:47;;;;;;;7.55;0.65;;;16.30;89.20;;;;;;5017087;28;20048;-74
2023/06/04 10:02:16;;;;;;;1.80;0.40;;;16.40;89.30;;;;;;5003105;28;21925;-77
2023/06/04 10:04:45;;;;;;;2.35;0.70;;;16.40;88.70;;;;;;4999458;28;20179;-77
2023/06/04 10:07:12;;;;;;;2.97;0.50;;;16.40;86.10;;;;;;4996435;28;20387;-76
2023/06/04 10:09:45;;;;;;;3.78;0.57;;;16.50;85.70;;;;;;5015484;28;20515;-76
2023/06/04 10:12:15;;;;;;;1.23;0.50;;;16.50;85.90;;;;;;5033491;28;20487;-76
2023/06/04 10:14:58;;;;;;;4.13;0.77;;;16.50;85.40;;;;;;5018400;28;20088;-76
2023/06/04 10:17:24;;;;;;;4.70;0.60;;;16.50;79.30;;;;;;5018015;28;20041;-76
2023/06/04 10:19:54;;;;;;;2.28;0.77;;;16.50;84.00;;;;;;5017888;28;20524;-77
2023/06/04 10:22:23;;;;;;;1.17;0.40;;;16.60;83.50;;;;;;5001644;28;20025;-77
2023/06/04 10:24:49;;;;;;;2.17;0.63;;;16.60;82.80;;;;;;5021036;28;20199;-77
2023/06/04 10:27:17;;;;;;;1.90;0.70;;;16.60;82.80;;;;;;5016536;28;20103;-77
2023/06/04 10:29:44;;;;;;;2.17;0.70;;;16.70;81.40;;;;;;5031048;28;20110;-77
2023/06/04 10:32:10;;;;;;;1.85;0.70;;;16.70;80.80;;;;;;5026256;28;20045;-77
2023/06/04 10:34:36;;;;;;;1.95;0.60;;;16.70;80.90;;;;;;5004659;28;21953;-77
2023/06/04 10:37:02;;;;;;;1.15;0.35;;;16.70;80.90;;;;;;5014733;28;20092;-77
2023/06/04 10:39:32;;;;;;;2.35;0.60;;;16.80;79.70;;;;;;5020732;28;20487;-76
2023/06/04 10:42:01;;;;;;;1.23;0.52;;;16.70;78.90;;;;;;5025565;28;20033;-77
2023/06/04 10:44:27;;;;;;;1.80;0.45;;;16.70;78.10;;;;;;5027850;28;20045;-76
2023/06/04 10:46:52;;;;;;;2.25;0.80;;;16.80;78.90;;;;;;5026503;28;20402;-77
2023/06/04 10:49:30;;;;;;;2.22;0.50;;;16.80;78.80;;;;;;5023713;28;20115;-77
2023/06/04 10:51:57;;;;;;;3.95;0.60;;;16.80;75.20;;;;;;5041121;28;20033;-77
2023/06/04 10:54:26;;;;;;;1.02;0.50;;;16.90;76.20;;;;;;5008246;28;20045;-77
2023/06/04 10:56:53;;;;;;;1.52;0.45;;;16.90;75.40;;;;;;5022564;28;20049;-77
2023/06/04 10:59:19;;;;;;;1.80;0.52;;;17.00;74.30;;;;;;5022043;28;20116;-77
2023/06/04 11:01:45;;;;;;;1.17;0.40;;;17.10;73.10;;;;;;5021699;28;20167;-77
2023/06/04 11:04:24;;;;;;;1.35;0.40;;;17.10;71.20;;;;;;5006099;28;20475;-77
2023/06/04 11:07:02;;;;;;;1.50;0.50;;;17.10;66.10;;;;;;5020775;28;20064;-77
2023/06/04 11:09:27;;;;;;;1.73;0.80;;;17.10;64.30;;;;;;5018824;28;20497;-76
2023/06/04 11:11:59;;;;;;;1.33;0.50;;;17.10;67.70;;;;;;5017386;28;20098;-75
2023/06/04 11:14:24;;;;;;;2.25;0.60;;;17.10;66.90;;;;;;5020973;28;21622;-77
2023/06/04 11:16:50;;;;;;;1.30;0.40;;;17.10;68.20;;;;;;5038382;28;20036;-76
2023/06/04 11:19:16;;;;;;;3.42;0.40;;;17.10;68.00;;;;;;5039506;28;20456;-77
2023/06/04 11:21:41;;;;;;;1.67;0.68;;;17.20;68.40;;;;;;5025037;28;20040;-75
2023/06/04 11:24:07;;;;;;;2.92;0.63;;;17.20;69.50;;;;;;5023058;28;20140;-77
2023/06/04 11:26:34;;;;;;;4.70;0.90;;;17.30;69.10;;;;;;5023058;28;21005;-77
2023/06/04 11:29:01;;;;;;;2.33;0.63;;;17.30;68.60;;;;;;5019889;28;20076;-78
2023/06/04 11:31:27;;;;;;;1.67;0.65;;;17.40;67.60;;;;;;5006351;28;20380;-77
2023/06/04 11:33:53;;;;;;;1.17;0.57;;;17.40;67.20;;;;;;5019427;28;20033;-78
2023/06/04 11:36:29;;;;;;;4.20;0.77;;;17.40;66.70;;;;;;5039201;28;20786;-78
2023/06/04 11:38:59;;;;;;;1.58;0.52;;;17.40;67.40;;;;;;5019714;28;20041;-77
2023/06/04 11:41:28;;;;;;;4.70;0.60;;;17.50;67.90;;;;;;5007293;28;20037;-77
2023/06/04 11:43:54;;;;;;;0.82;0.55;;;17.50;67.30;;;;;;5015891;28;20494;-78
2023/06/04 11:46:20;;;;;;;1.52;0.60;;;17.50;67.40;;;;;;5003269;28;20029;-77
2023/06/04 11:48:46;;;;;;;1.92;0.47;;;17.60;66.10;;;;;;5020304;28;20045;-78
2023/06/04 11:51:12;;;;;;;2.40;0.60;;;17.60;65.10;;;;;;5020997;28;20237;-78
2023/06/04 11:53:39;;;;;;;2.03;0.55;;;17.60;65.30;;;;;;5019730;28;20037;-78
2023/06/04 11:56:05;;;;;;;1.60;0.65;;;17.70;65.20;;;;;;5019617;28;20053;-78
2023/06/04 11:58:32;;;;;;;1.40;0.43;;;17.70;64.20;;;;;;5041141;28;20506;-77
2023/06/04 12:00:58;;;;;;;0.75;0.45;;;17.70;64.30;;;;;;5015934;28;20040;-77
2023/06/04 12:03:36;;;;;;;2.95;0.60;;;17.70;65.70;;;;;;5024885;28;20037;-77
2023/06/04 12:06:16;;;;;;;1.52;0.60;;;17.80;63.00;;;;;;5019048;28;21474;-77
2023/06/04 12:08:48;;;;;;;1.17;0.55;;;17.80;63.30;;;;;;5022393;28;20039;-76
2023/06/04 12:11:29;;;;;;;2.60;0.77;;;17.90;64.30;;;;;;5007997;28;20098;-77
2023/06/04 12:13:55;;;;;;;3.55;0.70;;;17.90;64.10;;;;;;5010321;28;20116;-76
2023/06/04 12:16:21;;;;;;;1.40;0.57;;;17.90;64.50;;;;;;5009978;28;20068;-76
2023/06/04 12:18:48;;;;;;;1.27;0.50;;;17.90;65.60;;;;;;5021256;28;20037;-76
2023/06/04 12:21:27;;;;;;;3.05;1.13;;;18.00;66.80;;;;;;5023969;28;20677;-76
2023/06/04 12:24:10;;;;;;;2.80;0.60;;;17.90;67.80;;;;;;5008636;28;20041;-76
2023/06/04 12:26:40;;;;;;;1.38;0.50;;;17.90;68.10;;;;;;5023287;28;20071;-76
2023/06/04 12:29:13;;;;;;;2.17;0.68;;;18.00;69.00;;;;;;5042581;28;20358;-76
2023/06/04 12:31:46;;;;;;;2.47;0.63;;;18.00;69.40;;;;;;5009788;28;20037;-75
2023/06/04 12:34:14;;;;;;;2.58;0.75;;;18.00;69.80;;;;;;5039153;28;20572;-75
2023/06/04 12:36:40;;;;;;;2.13;0.50;;;18.00;69.70;;;;;;5020926;28;20072;-76
2023/06/04 12:39:06;;;;;;;2.38;0.68;;;18.10;69.60;;;;;;5023350;28;20127;-77
2023/06/04 12:41:33;;;;;;;3.40;0.80;;;18.10;69.60;;;;;;5044396;28;20398;-76
2023/06/04 12:44:00;;;;;;;1.52;0.50;;;18.10;70.20;;;;;;5019873;28;20052;-76
2023/06/04 12:46:26;;;;;;;1.30;0.60;;;18.20;70.80;;;;;;5008200;28;20078;-76
2023/06/04 12:48:53;;;;;;;3.78;0.70;;;18.20;70.90;;;;;;5045353;28;20060;-76